首页
METAR-TAF:

METAR-TAF

机场 :

Mudgee, 澳大利亚

纬度: 32-33-45S, 经度: 149-36-40E, 海拔: 471米

当前天气观测

该预报发布于15分钟前的11:00 UTC
风速4节,风向东南
温度 15°C
湿度 100%
气压 1024 hPa
能见度10公里或以上
多云层高于9000英尺
阴天层高于11000英尺
小雨

METAR: YMDG 091100Z AUTO 13004KT 9999 -RA BKN090 OVC110 15/15 Q1024

时间: 21:15 (11:15 UTC)


TAF: 丢失

超过4000个机场的气象观测和天气预报(METAR&TAF报告)。

可查询的气象台以黄色和红色小点在地图上表示。

将鼠标移到小点上方,可查看气象台名称。

然后点击查看天气观测和预报。

如需切换地图:点击带黑十字的绿色按钮放大地图;点击带横线的绿色按钮缩小地图;或者点击绿色箭头查看邻近地区的地图。


METAR-TAF: